Santo, Texas
Current Conditions -  °F | °C
As of 1:53 PM on Monday 22 Dec 2014 (Local Time) from KMWL Reporting Station
Clear Clear  
Wind Chill: 63°   Ceiling: Unl
Heat Index: 63°   Visibility: 10mi
Dew Point: 43°   Wind: 16mph
Humidity: 48%   Direction: 320°NW
Pressure: 29.6"   Gusts: NA
Location:  32.6°N, 98.22°W
Report Text: KMWL 221953Z AUTO 32014KT 10SM CLR 17/06 A2960 RMK AO2 SLP019 T01720061
Loading
Personal Weather Stations






























Interactive Weather Map New forecast layout! Learn more

10-Day Weather Forecast

Advertisements
Track Severe Weather on mobile